createdAt,value
2023-06-20T00:00:20.231Z,1.00
2023-06-20T00:02:48.417Z,1.00
2023-06-20T00:05:16.576Z,1.00
2023-06-20T00:07:46.217Z,1.00
2023-06-20T00:10:14.500Z,1.00
2023-06-20T00:12:42.704Z,1.00
2023-06-20T00:15:11.441Z,1.00
2023-06-20T00:17:40.497Z,1.00
2023-06-20T00:20:09.995Z,1.00
2023-06-20T00:22:38.352Z,1.00
2023-06-20T00:25:08.768Z,1.00
2023-06-20T00:27:36.898Z,99.60
2023-06-20T00:30:05.389Z,9.60
2023-06-20T00:32:33.645Z,13.60
2023-06-20T00:35:01.777Z,17.70
2023-06-20T00:37:29.892Z,24.30
2023-06-20T00:39:58.541Z,26.90
2023-06-20T00:42:28.211Z,27.50
2023-06-20T00:44:56.414Z,27.80
2023-06-20T00:47:25.313Z,29.90
2023-06-20T00:49:53.817Z,30.50
2023-06-20T00:52:22.870Z,39.30
2023-06-20T00:54:51.070Z,47.70
2023-06-20T00:57:20.365Z,45.90
2023-06-20T00:59:50.978Z,51.10
2023-06-20T01:02:19.588Z,44.60
2023-06-20T01:04:48.163Z,46.00
2023-06-20T01:07:19.444Z,49.80
2023-06-20T01:09:53.888Z,60.30
2023-06-20T01:12:38.026Z,73.70
2023-06-20T01:15:12.569Z,75.60
2023-06-20T01:17:43.157Z,71.00
2023-06-20T01:20:14.276Z,85.20
2023-06-20T01:22:51.190Z,85.10
2023-06-20T01:25:26.251Z,87.20
2023-06-20T01:27:59.065Z,85.50
2023-06-20T01:30:31.369Z,84.10
2023-06-20T01:33:00.061Z,88.20
2023-06-20T01:35:29.406Z,82.10
2023-06-20T01:38:00.512Z,76.30
2023-06-20T01:40:28.897Z,87.70
2023-06-20T01:42:58.790Z,86.00
2023-06-20T01:45:29.013Z,89.50
2023-06-20T01:47:58.536Z,90.60
2023-06-20T01:50:27.020Z,95.20
2023-06-20T01:52:55.370Z,95.60
2023-06-20T01:55:25.319Z,95.60
2023-06-20T01:57:55.462Z,97.70
2023-06-20T02:00:23.786Z,98.50
2023-06-20T02:02:51.985Z,98.80
2023-06-20T02:05:20.454Z,97.60
2023-06-20T02:07:48.870Z,97.40
2023-06-20T02:10:17.065Z,97.10
2023-06-20T02:12:46.630Z,98.90
2023-06-20T02:15:14.835Z,99.90
2023-06-20T02:17:43.129Z,99.90
2023-06-20T02:20:12.453Z,99.90
2023-06-20T02:22:40.827Z,99.90
2023-06-20T02:25:10.652Z,99.90
2023-06-20T02:27:40.930Z,99.90
2023-06-20T02:30:11.886Z,99.90
2023-06-20T02:32:40.243Z,99.90
2023-06-20T02:37:37.432Z,99.90
2023-06-20T02:40:10.145Z,99.90
2023-06-20T02:42:38.311Z,99.90
2023-06-20T02:45:07.417Z,99.90
2023-06-20T02:47:41.681Z,99.90
2023-06-20T02:50:12.634Z,99.90
2023-06-20T02:52:44.300Z,99.90
2023-06-20T02:55:13.431Z,99.90
2023-06-20T02:57:41.866Z,99.90
2023-06-20T03:00:11.132Z,99.90
2023-06-20T03:02:43.628Z,99.90
2023-06-20T03:05:12.716Z,99.90
2023-06-20T03:07:42.364Z,99.90
2023-06-20T03:10:11.035Z,99.90
2023-06-20T03:12:39.366Z,99.90
2023-06-20T03:15:09.331Z,99.90
2023-06-20T03:17:37.550Z,99.90
2023-06-20T03:20:10.460Z,99.90
2023-06-20T03:22:38.602Z,99.90
2023-06-20T03:25:07.250Z,99.90
2023-06-20T03:27:35.457Z,99.90
2023-06-20T03:30:05.380Z,99.90
2023-06-20T03:32:33.565Z,99.90
2023-06-20T03:35:02.174Z,99.90
2023-06-20T03:37:31.989Z,99.90
2023-06-20T03:40:00.225Z,99.90
2023-06-20T03:42:28.574Z,99.90
2023-06-20T03:44:56.832Z,99.90
2023-06-20T03:47:24.984Z,99.90
2023-06-20T03:49:53.365Z,99.90
2023-06-20T03:52:21.599Z,99.90
2023-06-20T03:54:51.447Z,99.90
2023-06-20T03:57:19.876Z,99.90
2023-06-20T03:59:48.085Z,99.90
2023-06-20T04:02:16.308Z,99.90
2023-06-20T04:04:50.929Z,99.90
2023-06-20T04:07:20.796Z,99.90
2023-06-20T04:09:50.857Z,99.90
2023-06-20T04:12:19.477Z,99.90
2023-06-20T04:14:47.649Z,99.90
2023-06-20T04:17:16.027Z,99.90
2023-06-20T04:19:44.225Z,99.90
2023-06-20T04:22:13.350Z,99.90
2023-06-20T04:24:42.274Z,99.90
2023-06-20T04:27:12.382Z,99.90
2023-06-20T04:29:40.691Z,99.90
2023-06-20T04:32:09.041Z,99.90
2023-06-20T04:34:37.170Z,99.90
2023-06-20T04:37:05.810Z,99.90
2023-06-20T04:39:33.958Z,99.90
2023-06-20T04:42:02.428Z,99.90
2023-06-20T04:44:31.972Z,99.90
2023-06-20T04:47:00.501Z,99.90
2023-06-20T04:49:28.861Z,99.90
2023-06-20T04:51:58.921Z,99.90
2023-06-20T04:54:27.407Z,99.90
2023-06-20T04:56:55.658Z,92.80
2023-06-20T04:59:23.851Z,81.60
2023-06-20T05:01:53.564Z,87.90
2023-06-20T05:04:22.068Z,92.30
2023-06-20T05:06:50.375Z,93.90
2023-06-20T05:09:18.704Z,92.40
2023-06-20T05:11:46.904Z,93.90
2023-06-20T05:14:15.257Z,86.10
2023-06-20T05:16:43.674Z,79.80
2023-06-20T05:19:13.389Z,81.70
2023-06-20T05:21:41.700Z,48.80
2023-06-20T05:24:10.429Z,54.30
2023-06-20T05:26:38.688Z,56.40
2023-06-20T05:29:06.957Z,55.90
2023-06-20T05:31:37.992Z,46.80
2023-06-20T05:34:06.261Z,48.70
2023-06-20T05:36:36.379Z,37.50
2023-06-20T05:39:05.401Z,39.90
2023-06-20T05:41:33.554Z,43.00
2023-06-20T05:44:01.746Z,47.00
2023-06-20T05:46:30.120Z,48.20
2023-06-20T05:49:01.084Z,48.30
2023-06-20T05:51:30.657Z,46.50
2023-06-20T05:54:00.519Z,43.00
2023-06-20T05:56:28.832Z,48.80
2023-06-20T05:58:57.084Z,37.30
2023-06-20T06:01:25.587Z,29.30
2023-06-20T06:03:55.285Z,29.60
2023-06-20T06:06:25.302Z,27.00
2023-06-20T06:08:53.553Z,24.40
2023-06-20T06:11:23.237Z,27.70
2023-06-20T06:13:52.247Z,32.80
2023-06-20T06:16:20.705Z,23.60
2023-06-20T06:18:49.150Z,25.00
2023-06-20T06:21:17.471Z,22.30
2023-06-20T06:23:46.096Z,23.60
2023-06-20T06:26:14.503Z,21.70
2023-06-20T06:28:44.115Z,18.60
2023-06-20T06:31:14.730Z,9.90
2023-06-20T06:33:43.054Z,7.80
2023-06-20T06:36:11.293Z,10.60
2023-06-20T06:38:39.621Z,10.50
2023-06-20T06:41:07.960Z,3.30
2023-06-20T06:43:36.766Z,1.40
2023-06-20T06:46:06.550Z,1.00
2023-06-20T06:48:35.081Z,1.00
2023-06-20T06:51:03.648Z,1.00
2023-06-20T06:53:32.057Z,1.00
2023-06-20T06:56:00.583Z,1.00
2023-06-20T06:58:28.873Z,1.00
2023-06-20T07:00:57.383Z,1.00
2023-06-20T07:03:27.192Z,1.00
2023-06-20T07:05:55.555Z,1.00
2023-06-20T07:08:24.239Z,1.00
2023-06-20T07:10:53.001Z,1.00
2023-06-20T07:13:21.415Z,1.00
2023-06-20T07:15:49.705Z,1.00
2023-06-20T07:18:18.071Z,1.00
2023-06-20T07:20:47.930Z,1.00
2023-06-20T07:23:16.104Z,1.00
2023-06-20T07:25:58.380Z,1.00
2023-06-20T07:28:28.290Z,1.00
2023-06-20T07:30:56.677Z,1.00
2023-06-20T07:33:24.830Z,1.00
2023-06-20T07:35:54.466Z,1.00
2023-06-20T07:38:22.620Z,1.00
2023-06-20T07:40:50.738Z,1.00
2023-06-20T07:43:20.626Z,1.00
2023-06-20T07:45:48.782Z,1.00
2023-06-20T07:48:16.992Z,1.00
2023-06-20T07:50:45.192Z,1.00
2023-06-20T07:53:14.752Z,1.00
2023-06-20T07:55:44.503Z,1.00
2023-06-20T07:58:12.956Z,1.00
2023-06-20T08:00:41.924Z,1.00
2023-06-20T08:03:10.116Z,1.00
2023-06-20T08:05:38.385Z,1.00
2023-06-20T08:08:07.048Z,1.00
2023-06-20T08:10:36.902Z,1.00
2023-06-20T08:13:05.033Z,1.00
2023-06-20T08:15:33.635Z,1.00
2023-06-20T08:18:01.891Z,1.00
2023-06-20T08:20:30.280Z,1.00
2023-06-20T08:22:58.453Z,1.00
2023-06-20T08:25:26.822Z,1.00
2023-06-20T08:28:06.233Z,1.00
2023-06-20T08:30:42.157Z,1.00
2023-06-20T08:33:10.378Z,1.00
2023-06-20T08:35:38.600Z,1.00
2023-06-20T08:38:07.183Z,1.00
2023-06-20T08:40:36.078Z,1.00
2023-06-20T08:43:05.643Z,1.00
2023-06-20T08:45:33.845Z,1.00
2023-06-20T08:48:02.143Z,1.00
2023-06-20T08:50:30.746Z,1.00
2023-06-20T08:53:01.898Z,1.00
2023-06-20T08:55:30.605Z,1.00
2023-06-20T08:57:58.922Z,1.00
2023-06-20T09:00:29.187Z,1.00
2023-06-20T09:02:58.077Z,1.00
2023-06-20T09:05:26.752Z,1.00
2023-06-20T09:07:55.391Z,1.00
2023-06-20T09:10:26.987Z,1.00
2023-06-20T09:12:57.950Z,1.00
2023-06-20T09:15:28.528Z,1.00
2023-06-20T09:17:57.944Z,1.00
2023-06-20T09:20:27.384Z,1.00
2023-06-20T09:22:56.022Z,1.00
2023-06-20T09:25:24.896Z,1.00
2023-06-20T09:27:53.457Z,1.00
2023-06-20T09:30:25.103Z,1.00
2023-06-20T09:32:55.553Z,1.00
2023-06-20T09:35:25.214Z,1.00
2023-06-20T09:37:54.283Z,1.00
2023-06-20T09:40:23.018Z,1.00
2023-06-20T09:42:51.552Z,1.00
2023-06-20T09:45:19.687Z,1.00
2023-06-20T09:47:48.046Z,1.00
2023-06-20T09:50:19.163Z,1.00
2023-06-20T09:52:49.159Z,1.00
2023-06-20T09:55:17.717Z,1.00
2023-06-20T09:57:46.613Z,1.00
2023-06-20T10:00:15.963Z,1.00
2023-06-20T10:02:46.505Z,1.00
2023-06-20T10:05:16.239Z,1.00
2023-06-20T10:07:46.625Z,1.00
2023-06-20T10:10:15.243Z,1.00
2023-06-20T10:12:44.074Z,1.00
2023-06-20T10:15:12.570Z,1.00
2023-06-20T10:17:41.542Z,1.00
2023-06-20T10:20:10.468Z,1.00
2023-06-20T10:22:39.321Z,1.00
2023-06-20T10:25:16.696Z,1.00
2023-06-20T10:27:45.405Z,1.00
2023-06-20T10:30:14.487Z,1.00
2023-06-20T10:33:07.818Z,1.00
2023-06-20T10:35:36.003Z,1.00
2023-06-20T10:38:10.702Z,1.00
2023-06-20T10:40:40.247Z,1.00
2023-06-20T10:43:09.143Z,99.90
2023-06-20T10:45:37.311Z,1.00
2023-06-20T10:48:05.611Z,1.00
2023-06-20T10:50:34.033Z,1.00
2023-06-20T10:53:03.672Z,1.00
2023-06-20T10:55:31.951Z,1.00
2023-06-20T10:58:01.525Z,1.00
2023-06-20T11:00:29.896Z,1.00
2023-06-20T11:02:58.455Z,1.00
2023-06-20T11:05:28.127Z,1.00
2023-06-20T11:07:57.616Z,1.00
2023-06-20T11:10:28.877Z,1.00
2023-06-20T11:12:57.768Z,1.00
2023-06-20T11:15:28.784Z,1.00
2023-06-20T11:17:57.305Z,1.00
2023-06-20T11:20:26.639Z,1.00
2023-06-20T11:22:55.942Z,1.00
2023-06-20T11:25:28.679Z,1.00
2023-06-20T11:27:57.129Z,1.00
2023-06-20T11:30:31.098Z,1.00
2023-06-20T11:33:03.351Z,1.00
2023-06-20T11:35:44.863Z,1.00
2023-06-20T11:38:14.676Z,1.00
2023-06-20T11:40:43.521Z,1.00
2023-06-20T11:43:27.644Z,1.00
2023-06-20T11:46:02.088Z,1.00
2023-06-20T11:48:30.557Z,1.00
2023-06-20T11:50:59.586Z,1.00
2023-06-20T11:53:30.131Z,1.00
2023-06-20T11:56:01.631Z,1.00
2023-06-20T11:58:30.576Z,1.00
2023-06-20T12:01:05.306Z,1.00
2023-06-20T12:03:33.629Z,1.00
2023-06-20T12:06:01.769Z,1.00
2023-06-20T12:08:34.701Z,1.00
2023-06-20T12:11:03.441Z,1.00
2023-06-20T12:13:33.803Z,1.00
2023-06-20T12:16:03.614Z,1.00
2023-06-20T12:18:31.953Z,1.00
2023-06-20T12:21:03.966Z,1.00
2023-06-20T12:23:32.930Z,1.00
2023-06-20T12:26:01.121Z,1.00
2023-06-20T12:28:29.306Z,1.00
2023-06-20T12:30:57.757Z,1.00
2023-06-20T12:33:27.378Z,1.00
2023-06-20T12:35:55.626Z,1.00
2023-06-20T12:38:23.941Z,1.00
2023-06-20T12:40:52.074Z,1.00
2023-06-20T12:43:20.399Z,1.00
2023-06-20T12:45:48.877Z,1.00
2023-06-20T12:48:17.158Z,1.00
2023-06-20T12:50:46.715Z,1.00
2023-06-20T12:53:15.025Z,1.00
2023-06-20T12:55:43.164Z,1.00
2023-06-20T12:58:13.365Z,1.00
2023-06-20T13:00:42.856Z,1.00
2023-06-20T13:03:11.273Z,1.00
2023-06-20T13:05:39.725Z,1.00
2023-06-20T13:08:09.607Z,1.00
2023-06-20T13:10:37.819Z,1.00
2023-06-20T13:13:06.238Z,1.00
2023-06-20T13:15:34.569Z,1.00
2023-06-20T13:18:05.701Z,1.00
2023-06-20T13:20:35.779Z,1.00
2023-06-20T13:23:04.043Z,1.00
2023-06-20T13:25:34.333Z,1.00
2023-06-20T13:28:02.514Z,1.00
2023-06-20T13:30:30.645Z,1.00
2023-06-20T13:32:58.814Z,1.00
2023-06-20T13:35:27.659Z,1.00
2023-06-20T13:37:55.793Z,1.00
2023-06-20T13:40:31.575Z,1.00
2023-06-20T13:43:03.831Z,1.00
2023-06-20T13:45:32.175Z,1.00
2023-06-20T13:48:00.396Z,1.00
2023-06-20T13:50:29.078Z,1.00
2023-06-20T13:52:57.390Z,1.00
2023-06-20T13:55:25.611Z,1.00
2023-06-20T13:57:53.783Z,1.00
2023-06-20T14:00:23.629Z,1.00
2023-06-20T14:02:51.978Z,1.00
2023-06-20T14:05:21.237Z,1.00
2023-06-20T14:07:52.047Z,1.00
2023-06-20T14:10:20.373Z,1.00
2023-06-20T14:12:49.347Z,1.00
2023-06-20T14:15:17.626Z,1.00
2023-06-20T14:17:47.665Z,1.00
2023-06-20T14:20:15.944Z,1.00
2023-06-20T14:22:44.058Z,1.00
2023-06-20T14:25:12.419Z,1.00
2023-06-20T14:27:40.554Z,1.00
2023-06-20T14:30:09.798Z,1.00
2023-06-20T14:32:38.228Z,1.00
2023-06-20T14:35:08.577Z,1.00
2023-06-20T14:37:36.761Z,1.00
2023-06-20T14:40:05.467Z,1.00
2023-06-20T14:42:33.683Z,1.00
2023-06-20T14:45:02.004Z,1.00
2023-06-20T14:47:30.198Z,1.00
2023-06-20T14:49:58.510Z,1.00
2023-06-20T14:52:28.052Z,1.00
2023-06-20T14:54:56.475Z,1.00
2023-06-20T14:57:24.824Z,1.00
2023-06-20T14:59:53.012Z,1.00
2023-06-20T15:02:21.291Z,1.00
2023-06-20T15:04:49.569Z,1.00
2023-06-20T15:07:17.814Z,1.00
2023-06-20T15:09:47.398Z,1.00
2023-06-20T15:12:16.145Z,1.00
2023-06-20T15:14:44.332Z,1.00
2023-06-20T15:17:12.562Z,1.00
2023-06-20T15:19:40.756Z,1.00
2023-06-20T15:22:08.961Z,1.00
2023-06-20T15:24:37.277Z,1.00
2023-06-20T15:27:07.514Z,1.00
2023-06-20T15:29:35.905Z,1.00
2023-06-20T15:32:04.257Z,1.00
2023-06-20T15:34:32.923Z,1.00
2023-06-20T15:37:01.161Z,1.00
2023-06-20T15:39:29.389Z,1.00
2023-06-20T15:41:58.612Z,1.00
2023-06-20T15:44:28.267Z,1.00
2023-06-20T15:46:56.860Z,1.00
2023-06-20T15:49:29.847Z,1.00
2023-06-20T15:51:58.498Z,1.00
2023-06-20T15:54:27.410Z,1.00
2023-06-20T15:56:55.686Z,1.00
2023-06-20T15:59:23.967Z,1.00
2023-06-20T16:01:53.644Z,1.00
2023-06-20T16:04:22.010Z,1.00
2023-06-20T16:06:50.310Z,1.00
2023-06-20T16:09:18.615Z,1.00
2023-06-20T16:11:46.900Z,1.00
2023-06-20T16:14:15.253Z,1.00
2023-06-20T16:16:43.492Z,1.00
2023-06-20T16:19:13.082Z,1.00
2023-06-20T16:21:41.505Z,1.00
2023-06-20T16:24:09.777Z,1.00
2023-06-20T16:26:39.500Z,1.00
2023-06-20T16:29:09.901Z,1.00
2023-06-20T16:31:38.317Z,1.00
2023-06-20T16:34:06.679Z,1.00
2023-06-20T16:36:36.388Z,1.00
2023-06-20T16:39:04.628Z,1.00
2023-06-20T16:41:32.864Z,1.00
2023-06-20T16:44:01.019Z,1.00
2023-06-20T16:46:29.271Z,1.00
2023-06-20T16:48:57.509Z,1.00
2023-06-20T16:51:26.066Z,1.00
2023-06-20T16:53:55.600Z,1.00
2023-06-20T16:56:24.181Z,1.00
2023-06-20T16:58:52.557Z,1.00
2023-06-20T17:01:20.957Z,1.00
2023-06-20T17:03:49.473Z,1.00
2023-06-20T17:06:17.750Z,1.00
2023-06-20T17:08:46.105Z,1.00
2023-06-20T17:11:15.704Z,1.00
2023-06-20T17:13:43.869Z,1.00
2023-06-20T17:16:12.091Z,1.00
2023-06-20T17:18:40.348Z,1.00
2023-06-20T17:21:09.049Z,1.00
2023-06-20T17:23:37.366Z,1.00
2023-06-20T17:26:05.596Z,1.00
2023-06-20T17:28:35.260Z,1.00
2023-06-20T17:31:03.606Z,1.00
2023-06-20T17:33:31.924Z,1.00
2023-06-20T17:36:00.135Z,1.00
2023-06-20T17:38:28.335Z,1.00
2023-06-20T17:40:56.542Z,1.00
2023-06-20T17:43:24.756Z,1.00
2023-06-20T17:45:54.527Z,1.00
2023-06-20T17:48:22.815Z,1.00
2023-06-20T17:50:51.026Z,1.00
2023-06-20T17:53:19.303Z,1.00
2023-06-20T17:55:47.537Z,1.00
2023-06-20T17:58:15.903Z,1.00
2023-06-20T18:00:44.112Z,1.00
2023-06-20T18:03:13.988Z,1.00
2023-06-20T18:05:42.256Z,1.00
2023-06-20T18:08:10.840Z,1.00
2023-06-20T18:10:39.321Z,1.00
2023-06-20T18:13:07.579Z,1.00
2023-06-20T18:15:35.851Z,1.00
2023-06-20T18:18:04.401Z,1.00
2023-06-20T18:20:34.459Z,1.00
2023-06-20T18:23:02.744Z,1.00
2023-06-20T18:25:30.984Z,1.00
2023-06-20T18:27:59.180Z,1.00
2023-06-20T18:30:28.127Z,1.00
2023-06-20T18:32:56.610Z,1.00
2023-06-20T18:35:25.106Z,1.00
2023-06-20T18:37:54.779Z,1.00
2023-06-20T18:40:23.079Z,1.00
2023-06-20T18:42:51.886Z,1.00
2023-06-20T18:45:20.381Z,1.00
2023-06-20T18:47:48.847Z,1.00
2023-06-20T18:50:17.350Z,1.00
2023-06-20T18:52:45.652Z,1.00
2023-06-20T18:55:15.338Z,1.00
2023-06-20T18:57:43.701Z,1.00
2023-06-20T19:00:13.269Z,1.00
2023-06-20T19:02:41.887Z,1.00
2023-06-20T19:05:10.654Z,1.00
2023-06-20T19:07:38.970Z,1.00
2023-06-20T19:10:11.556Z,1.00
2023-06-20T19:12:41.820Z,1.00
2023-06-20T19:15:10.868Z,1.00
2023-06-20T19:17:42.091Z,1.00
2023-06-20T19:20:11.474Z,1.00
2023-06-20T19:22:40.039Z,1.00
2023-06-20T19:25:08.724Z,1.00
2023-06-20T19:27:37.212Z,1.00
2023-06-20T19:30:08.018Z,1.00
2023-06-20T19:32:36.290Z,1.00
2023-06-20T19:35:04.741Z,1.00
2023-06-20T19:37:32.891Z,1.00
2023-06-20T19:40:02.961Z,1.00
2023-06-20T19:42:32.357Z,1.00
2023-06-20T19:45:01.138Z,1.00
2023-06-20T19:47:30.706Z,1.00
2023-06-20T19:49:58.917Z,1.00
2023-06-20T19:52:27.191Z,1.00
2023-06-20T19:54:55.370Z,1.00
2023-06-20T19:57:26.288Z,1.00
2023-06-20T19:59:55.290Z,1.00
2023-06-20T20:02:25.312Z,1.00
2023-06-20T20:04:54.977Z,1.00
2023-06-20T20:07:23.368Z,1.00
2023-06-20T20:09:51.776Z,1.00
2023-06-20T20:12:21.348Z,1.00
2023-06-20T20:14:49.645Z,1.00
2023-06-20T20:17:17.919Z,1.00
2023-06-20T20:19:46.114Z,1.00
2023-06-20T20:22:15.795Z,1.00
2023-06-20T20:24:47.929Z,1.00
2023-06-20T20:27:21.016Z,1.00
2023-06-20T20:29:49.460Z,1.00
2023-06-20T20:32:17.894Z,1.00
2023-06-20T20:34:46.536Z,1.00
2023-06-20T20:37:16.442Z,9.50
2023-06-20T20:39:44.782Z,1.00
2023-06-20T20:42:13.606Z,1.00
2023-06-20T20:44:41.846Z,1.00
2023-06-20T20:47:10.236Z,1.00
2023-06-20T20:49:38.585Z,1.00
2023-06-20T20:52:07.770Z,1.00
2023-06-20T20:54:37.667Z,1.00
2023-06-20T20:57:06.863Z,1.00
2023-06-20T20:59:35.102Z,1.00
2023-06-20T21:02:03.617Z,1.00
2023-06-20T21:04:32.522Z,1.00
2023-06-20T21:07:00.813Z,1.00
2023-06-20T21:09:29.321Z,1.00
2023-06-20T21:11:59.080Z,1.00
2023-06-20T21:14:27.322Z,1.00
2023-06-20T21:16:55.645Z,1.00
2023-06-20T21:19:24.659Z,1.00
2023-06-20T21:21:52.885Z,1.00
2023-06-20T21:24:21.153Z,1.00
2023-06-20T21:26:49.402Z,1.00
2023-06-20T21:29:18.988Z,1.00
2023-06-20T21:31:47.227Z,1.00
2023-06-20T21:34:15.512Z,1.00
2023-06-20T21:36:43.808Z,1.00
2023-06-20T21:39:12.023Z,1.00
2023-06-20T21:41:40.264Z,1.00
2023-06-20T21:44:08.524Z,1.00
2023-06-20T21:46:38.271Z,1.00
2023-06-20T21:49:08.498Z,1.00
2023-06-20T21:51:36.977Z,1.00
2023-06-20T21:54:05.362Z,1.00
2023-06-20T21:56:33.575Z,1.00
2023-06-20T21:59:01.906Z,1.00
2023-06-20T22:01:30.198Z,1.00
2023-06-20T22:04:03.382Z,1.00
2023-06-20T22:06:31.813Z,1.00
2023-06-20T22:09:00.029Z,1.00
2023-06-20T22:11:28.168Z,1.00
2023-06-20T22:13:56.571Z,1.00
2023-06-20T22:16:24.765Z,1.00
2023-06-20T22:18:53.024Z,1.00
2023-06-20T22:21:23.979Z,1.00
2023-06-20T22:23:52.138Z,1.00
2023-06-20T22:26:20.439Z,1.00
2023-06-20T22:28:48.666Z,1.00
2023-06-20T22:31:16.886Z,1.00
2023-06-20T22:33:45.403Z,1.00
2023-06-20T22:36:13.704Z,1.00
2023-06-20T22:38:45.037Z,1.00
2023-06-20T22:41:15.234Z,1.00
2023-06-20T22:43:43.989Z,1.00
2023-06-20T22:46:12.459Z,1.00
2023-06-20T22:48:40.831Z,1.00
2023-06-20T22:51:09.022Z,1.00
2023-06-20T22:53:37.381Z,1.00
2023-06-20T22:56:07.021Z,1.00
2023-06-20T22:58:35.213Z,1.00
2023-06-20T23:01:04.106Z,1.00
2023-06-20T23:03:34.109Z,1.00
2023-06-20T23:06:02.453Z,1.00
2023-06-20T23:08:30.789Z,1.00
2023-06-20T23:10:59.000Z,1.00
2023-06-20T23:13:28.668Z,1.00
2023-06-20T23:15:56.839Z,1.00
2023-06-20T23:18:25.104Z,1.00
2023-06-20T23:20:53.705Z,1.00
2023-06-20T23:23:21.893Z,1.00
2023-06-20T23:25:50.244Z,1.00
2023-06-20T23:28:19.708Z,1.00
2023-06-20T23:30:49.584Z,1.00
2023-06-20T23:33:17.861Z,1.00
2023-06-20T23:35:46.402Z,1.00
2023-06-20T23:38:15.482Z,1.00
2023-06-20T23:40:43.780Z,1.00
2023-06-20T23:43:11.951Z,1.00
2023-06-20T23:45:40.145Z,1.00
2023-06-20T23:48:09.815Z,1.00
2023-06-20T23:50:38.069Z,1.00
2023-06-20T23:53:06.963Z,1.00
2023-06-20T23:55:35.142Z,1.00
2023-06-20T23:58:03.515Z,1.00
